Mekoryuk, Alaska
Current Conditions -  °F | °C
As of 1:16 AM on Saturday 22 Nov 2014 (Local Time) from PAMY Reporting Station
Clear Clear  
Wind Chill: 14°   Ceiling: Unl
Heat Index: 27°   Visibility: 10mi
Dew Point: 16°   Wind: 17mph
Humidity: 64%   Direction: 60°ENE
Pressure: 28.99"   Gusts: 22mph
Location:  60.39°N, 166.19°W
Report Text: PAMY 221016Z AUTO 06015G19KT 10SM CLR M03/M09 A2899 RMK AO1
Loading
Personal Weather Stations






























Interactive Weather Map New forecast layout! Learn more

10-Day Weather Forecast

Advertisements
Track Severe Weather on mobile